LFQQ/LIL METAR and TAF weather

Enter ICAO airport designator
Station Type Date Time Source
LFQQ METAR 2018/12/18 10:30 UTC NOAA

LFQQ 181030Z AUTO 15014KT 9999 OVC007 07/06 Q1018 BECMG NSC


Station Type Date Time Source
LFQQ Decoded METAR 2018/12/18 10:30 UTC NOAA

Lille, France (LFQQ) 50-34N 003-06E 52M
Dec 18, 2018 - 05:30 AM EST / 2018.12.18 1030 UTC
Wind: from the SSE (150 degrees) at 16 MPH (14 KT):0
Visibility: greater than 7 mile(s):0
Sky conditions: overcast
Temperature: 44 F (7 C)
Dew Point: 42 F (6 C)
Relative Humidity: 93%
Pressure (altimeter): 30.06 in. Hg (1018 hPa)
ob: LFQQ 181030Z AUTO 15014KT 9999 OVC007 07/06 Q1018 BECMG NSC
cycle: 10

Station Type Date Time Source
LFQQ TAF 2018/12/18 06:21 UTC NOAA

TAF LFQQ 180500Z 1806/1912 18015KT 8000 OVC007
TEMPO 1806/1809 2000 BR OVC002
BECMG 1810/1812 NSC
BECMG 1822/1824 18015G25KT
BECMG 1900/1903 19015KT RA OVC010
TEMPO 1903/1906 3000 DZRA OVC005
BECMG 1906/1909 NSW OVC017


Example: see airport list